METAR Formatted Surface Weather Observation
Issued by NWS

Home | Current Version | Previous Version | Text Only | Print | Product List | Glossary On
Versions: 1 2 3 4 5 6 7 8 9 10 11 12 13 14 15 16 17 18 19 20 21 22 23 24 25 26 27 28
285
SAUS45 KREV 180357
MTRDRA
METAR KDRA 180355Z AUTO 12008KT 10SM CLR 04/M05 A3013 RMK AO2 SLP200
T00391050



USA.gov is the U.S. government's official web portal to all federal, state and local government web resources and services.